Airfield :
LOGIN :

Register | Disclaimer

   EN    FR    IT 

 










Legend :    VFR   Marginal VFR   IFR   Intensive IFR   Very Intensive IFR
Visi :
Ceiling :
>= 8 km
>= 3000ft
5 to 8 km
1000 to 3000 ft
1500m to 5 km
500 to 1000 ft
800 to 1500m
200 to 500 ft
< 800m
< 200 ft
Symbols :   Thunderstorms  Fog  Heavy snow  Heavy precipitations  Wind > 20 kt
SIGMETs :     Misc.  Thunderstorms  Icing  Turbulence  Mountain Waves  Volcanic Ashes






- Airport Elevation : 47 ft
- IATA code : CBG


EGSC - Cambridge

CURRENT METAR :
  • 191050Z 24019KT 9999 -RA FEW018 SCT040 11/09 Q1003

EXPIRED METARs :
  • 191020Z 24021KT 9999 -RA FEW018 11/09 Q1003
  • 190950Z 24021KT 9999 RA FEW018 11/09 Q1003
  • 190920Z 24020G32KT 9999 FEW018 11/09 Q1003

TAF TAF EGSC
Valid from the 19 at 10:00 until the 19 at 18:00 UTC


191011Z 1910/1918 23015KT 9999 SCT010
TEMPO 1910/1918 23018G30KT 7000 -RADZ
PROB30
TEMPO 1910/1915 BKN008
BECMG 1915/1918 BKN012
PROB40
TEMPO 1915/1918 4000 RADZ RA BKN008



MET'MAP, your aeronautical weather chart ! - Copyright ORBIFLY December 2007 - Disclaimer

ORBIFLY MET'MAP TEAM :

Programming & Development : Alexandra Zaïnal
Concept & original design : Baudouin d'Aumeries
Assistance for programming : Marc-Olivier Méhu
Technical & hardware support : Manuel Goepfert

Contact : metmap@orbifly.com




SOURCES & CREDITS :

   NOAA